sensor_id;sensor_type;location;lat;lon;timestamp;temperature;humidity
34644;DHT22;26931;43.498;-1.506;2023-03-14T00:01:47;15.90;89.90
34644;DHT22;26931;43.498;-1.506;2023-03-14T00:04:14;15.90;90.00
34644;DHT22;26931;43.498;-1.506;2023-03-14T00:06:40;15.90;90.10
34644;DHT22;26931;43.498;-1.506;2023-03-14T00:09:06;15.90;90.10
34644;DHT22;26931;43.498;-1.506;2023-03-14T00:11:32;15.90;90.20
34644;DHT22;26931;43.498;-1.506;2023-03-14T00:13:58;15.90;90.20
34644;DHT22;26931;43.498;-1.506;2023-03-14T00:16:25;16.10;90.20
34644;DHT22;26931;43.498;-1.506;2023-03-14T00:18:51;15.80;90.10
34644;DHT22;26931;43.498;-1.506;2023-03-14T00:21:17;15.90;89.80
34644;DHT22;26931;43.498;-1.506;2023-03-14T00:23:43;15.80;89.50
34644;DHT22;26931;43.498;-1.506;2023-03-14T00:26:13;15.80;89.00
34644;DHT22;26931;43.498;-1.506;2023-03-14T00:28:40;15.80;88.80
34644;DHT22;26931;43.498;-1.506;2023-03-14T00:31:06;15.80;88.40
34644;DHT22;26931;43.498;-1.506;2023-03-14T00:33:33;15.80;87.70
34644;DHT22;26931;43.498;-1.506;2023-03-14T00:36:03;15.70;86.80
34644;DHT22;26931;43.498;-1.506;2023-03-14T00:38:30;15.80;86.20
34644;DHT22;26931;43.498;-1.506;2023-03-14T00:40:56;15.70;86.00
34644;DHT22;26931;43.498;-1.506;2023-03-14T00:43:21;15.70;85.80
34644;DHT22;26931;43.498;-1.506;2023-03-14T00:45:51;15.80;85.80
34644;DHT22;26931;43.498;-1.506;2023-03-14T00:48:18;15.70;85.90
34644;DHT22;26931;43.498;-1.506;2023-03-14T00:50:44;15.70;85.80
34644;DHT22;26931;43.498;-1.506;2023-03-14T00:53:10;15.70;85.80
34644;DHT22;26931;43.498;-1.506;2023-03-14T00:55:37;15.70;85.80
34644;DHT22;26931;43.498;-1.506;2023-03-14T00:58:03;15.70;85.90
34644;DHT22;26931;43.498;-1.506;2023-03-14T01:00:29;15.70;86.00
34644;DHT22;26931;43.498;-1.506;2023-03-14T01:02:54;15.70;86.10
34644;DHT22;26931;43.498;-1.506;2023-03-14T01:05:21;15.70;86.20
34644;DHT22;26931;43.498;-1.506;2023-03-14T01:07:47;15.70;86.40
34644;DHT22;26931;43.498;-1.506;2023-03-14T01:10:13;15.70;86.40
34644;DHT22;26931;43.498;-1.506;2023-03-14T01:12:38;15.70;86.60
34644;DHT22;26931;43.498;-1.506;2023-03-14T01:15:05;15.70;86.80
34644;DHT22;26931;43.498;-1.506;2023-03-14T01:17:31;15.70;87.10
34644;DHT22;26931;43.498;-1.506;2023-03-14T01:19:56;15.80;87.10
34644;DHT22;26931;43.498;-1.506;2023-03-14T01:22:22;15.60;87.10
34644;DHT22;26931;43.498;-1.506;2023-03-14T01:24:48;15.60;86.70
34644;DHT22;26931;43.498;-1.506;2023-03-14T01:27:14;15.60;86.40
34644;DHT22;26931;43.498;-1.506;2023-03-14T01:29:39;15.50;85.90
34644;DHT22;26931;43.498;-1.506;2023-03-14T01:32:05;15.70;86.10
34644;DHT22;26931;43.498;-1.506;2023-03-14T01:34:31;15.60;86.00
34644;DHT22;26931;43.498;-1.506;2023-03-14T01:36:57;15.60;86.00
34644;DHT22;26931;43.498;-1.506;2023-03-14T01:39:23;15.60;86.00
34644;DHT22;26931;43.498;-1.506;2023-03-14T01:41:49;15.60;86.20
34644;DHT22;26931;43.498;-1.506;2023-03-14T01:44:15;15.50;86.50
34644;DHT22;26931;43.498;-1.506;2023-03-14T01:46:41;15.60;86.70
34644;DHT22;26931;43.498;-1.506;2023-03-14T01:51:35;15.60;87.00
34644;DHT22;26931;43.498;-1.506;2023-03-14T01:54:06;15.70;87.30
34644;DHT22;26931;43.498;-1.506;2023-03-14T01:56:33;15.50;87.10
34644;DHT22;26931;43.498;-1.506;2023-03-14T01:59:00;15.60;87.20
34644;DHT22;26931;43.498;-1.506;2023-03-14T02:01:27;15.60;87.10
34644;DHT22;26931;43.498;-1.506;2023-03-14T02:03:54;15.50;87.20
34644;DHT22;26931;43.498;-1.506;2023-03-14T02:06:22;15.50;87.30
34644;DHT22;26931;43.498;-1.506;2023-03-14T02:08:48;15.50;87.40
34644;DHT22;26931;43.498;-1.506;2023-03-14T02:11:15;15.50;87.60
34644;DHT22;26931;43.498;-1.506;2023-03-14T02:13:42;15.50;87.80
34644;DHT22;26931;43.498;-1.506;2023-03-14T02:16:08;15.60;87.90
34644;DHT22;26931;43.498;-1.506;2023-03-14T02:18:34;15.50;87.90
34644;DHT22;26931;43.498;-1.506;2023-03-14T02:21:02;15.50;87.80
34644;DHT22;26931;43.498;-1.506;2023-03-14T02:26:08;15.40;88.00
34644;DHT22;26931;43.498;-1.506;2023-03-14T02:28:36;15.60;88.20
34644;DHT22;26931;43.498;-1.506;2023-03-14T02:31:02;15.40;88.00
34644;DHT22;26931;43.498;-1.506;2023-03-14T02:33:27;15.40;88.00
34644;DHT22;26931;43.498;-1.506;2023-03-14T02:35:56;15.40;88.00
34644;DHT22;26931;43.498;-1.506;2023-03-14T02:40:55;15.50;88.20
34644;DHT22;26931;43.498;-1.506;2023-03-14T02:43:21;15.50;88.20
34644;DHT22;26931;43.498;-1.506;2023-03-14T02:45:47;15.40;88.30
34644;DHT22;26931;43.498;-1.506;2023-03-14T02:48:14;15.40;88.30
34644;DHT22;26931;43.498;-1.506;2023-03-14T02:50:41;15.40;88.40
34644;DHT22;26931;43.498;-1.506;2023-03-14T02:53:07;15.40;88.60
34644;DHT22;26931;43.498;-1.506;2023-03-14T02:55:33;15.40;88.70
34644;DHT22;26931;43.498;-1.506;2023-03-14T02:57:59;15.30;88.80
34644;DHT22;26931;43.498;-1.506;2023-03-14T03:00:25;15.40;89.10
34644;DHT22;26931;43.498;-1.506;2023-03-14T03:02:51;15.20;89.30
34644;DHT22;26931;43.498;-1.506;2023-03-14T03:05:17;15.20;89.80
34644;DHT22;26931;43.498;-1.506;2023-03-14T03:07:42;15.30;90.00
34644;DHT22;26931;43.498;-1.506;2023-03-14T03:10:08;15.30;90.20
34644;DHT22;26931;43.498;-1.506;2023-03-14T03:12:34;15.00;90.10
34644;DHT22;26931;43.498;-1.506;2023-03-14T03:15:00;15.00;90.10
34644;DHT22;26931;43.498;-1.506;2023-03-14T03:17:26;15.10;90.20
34644;DHT22;26931;43.498;-1.506;2023-03-14T03:19:52;15.00;90.20
34644;DHT22;26931;43.498;-1.506;2023-03-14T03:22:18;15.00;90.30
34644;DHT22;26931;43.498;-1.506;2023-03-14T03:24:44;15.00;90.80
34644;DHT22;26931;43.498;-1.506;2023-03-14T03:27:09;15.00;90.50
34644;DHT22;26931;43.498;-1.506;2023-03-14T03:29:35;15.00;90.60
34644;DHT22;26931;43.498;-1.506;2023-03-14T03:32:01;15.00;90.60
34644;DHT22;26931;43.498;-1.506;2023-03-14T03:34:27;15.00;90.60
34644;DHT22;26931;43.498;-1.506;2023-03-14T03:36:55;15.00;90.60
34644;DHT22;26931;43.498;-1.506;2023-03-14T03:39:21;15.00;90.50
34644;DHT22;26931;43.498;-1.506;2023-03-14T03:41:47;15.20;90.50
34644;DHT22;26931;43.498;-1.506;2023-03-14T03:44:12;15.10;90.50
34644;DHT22;26931;43.498;-1.506;2023-03-14T03:46:38;15.10;90.60
34644;DHT22;26931;43.498;-1.506;2023-03-14T03:49:04;15.10;90.60
34644;DHT22;26931;43.498;-1.506;2023-03-14T03:51:30;15.00;90.60
34644;DHT22;26931;43.498;-1.506;2023-03-14T03:53:56;15.00;90.60
34644;DHT22;26931;43.498;-1.506;2023-03-14T03:56:22;15.00;90.60
34644;DHT22;26931;43.498;-1.506;2023-03-14T03:58:48;15.10;90.60
34644;DHT22;26931;43.498;-1.506;2023-03-14T04:01:14;15.10;90.70
34644;DHT22;26931;43.498;-1.506;2023-03-14T04:03:40;15.10;90.70
34644;DHT22;26931;43.498;-1.506;2023-03-14T04:06:10;15.10;90.70
34644;DHT22;26931;43.498;-1.506;2023-03-14T04:08:36;15.00;90.80
34644;DHT22;26931;43.498;-1.506;2023-03-14T04:11:02;15.00;90.80
34644;DHT22;26931;43.498;-1.506;2023-03-14T04:13:28;15.10;90.90
34644;DHT22;26931;43.498;-1.506;2023-03-14T04:15:54;15.00;90.90
34644;DHT22;26931;43.498;-1.506;2023-03-14T04:18:21;15.00;91.00
34644;DHT22;26931;43.498;-1.506;2023-03-14T04:20:53;15.00;91.10
34644;DHT22;26931;43.498;-1.506;2023-03-14T04:23:20;15.00;91.20
34644;DHT22;26931;43.498;-1.506;2023-03-14T04:25:46;15.10;91.20
34644;DHT22;26931;43.498;-1.506;2023-03-14T04:28:11;15.20;91.20
34644;DHT22;26931;43.498;-1.506;2023-03-14T04:30:37;15.00;91.10
34644;DHT22;26931;43.498;-1.506;2023-03-14T04:33:03;15.00;91.20
34644;DHT22;26931;43.498;-1.506;2023-03-14T04:35:32;14.90;91.10
34644;DHT22;26931;43.498;-1.506;2023-03-14T04:37:58;15.10;91.30
34644;DHT22;26931;43.498;-1.506;2023-03-14T04:40:25;15.00;91.30
34644;DHT22;26931;43.498;-1.506;2023-03-14T04:42:51;15.00;91.30
34644;DHT22;26931;43.498;-1.506;2023-03-14T04:45:17;14.90;91.40
34644;DHT22;26931;43.498;-1.506;2023-03-14T04:47:52;15.00;91.50
34644;DHT22;26931;43.498;-1.506;2023-03-14T04:50:18;15.00;91.60
34644;DHT22;26931;43.498;-1.506;2023-03-14T04:52:43;15.10;91.60
34644;DHT22;26931;43.498;-1.506;2023-03-14T04:55:09;15.00;91.50
34644;DHT22;26931;43.498;-1.506;2023-03-14T04:57:35;15.00;91.50
34644;DHT22;26931;43.498;-1.506;2023-03-14T05:00:01;15.00;91.50
34644;DHT22;26931;43.498;-1.506;2023-03-14T05:02:31;15.00;91.50
34644;DHT22;26931;43.498;-1.506;2023-03-14T05:04:57;14.90;91.50
34644;DHT22;26931;43.498;-1.506;2023-03-14T05:07:25;15.00;91.50
34644;DHT22;26931;43.498;-1.506;2023-03-14T05:09:51;14.90;91.60
34644;DHT22;26931;43.498;-1.506;2023-03-14T05:12:19;15.00;91.60
34644;DHT22;26931;43.498;-1.506;2023-03-14T05:14:45;14.80;91.60
34644;DHT22;26931;43.498;-1.506;2023-03-14T05:17:10;14.90;91.60
34644;DHT22;26931;43.498;-1.506;2023-03-14T05:19:38;14.90;91.60
34644;DHT22;26931;43.498;-1.506;2023-03-14T05:22:04;14.80;91.60
34644;DHT22;26931;43.498;-1.506;2023-03-14T05:24:30;15.10;91.70
34644;DHT22;26931;43.498;-1.506;2023-03-14T05:26:56;14.80;91.70
34644;DHT22;26931;43.498;-1.506;2023-03-14T05:29:21;14.90;91.90
34644;DHT22;26931;43.498;-1.506;2023-03-14T05:31:47;14.80;92.00
34644;DHT22;26931;43.498;-1.506;2023-03-14T05:34:13;14.80;92.10
34644;DHT22;26931;43.498;-1.506;2023-03-14T05:36:39;14.80;92.10
34644;DHT22;26931;43.498;-1.506;2023-03-14T05:39:05;14.70;92.10
34644;DHT22;26931;43.498;-1.506;2023-03-14T05:41:30;14.80;92.20
34644;DHT22;26931;43.498;-1.506;2023-03-14T05:43:56;14.80;92.20
34644;DHT22;26931;43.498;-1.506;2023-03-14T05:46:22;14.80;92.20
34644;DHT22;26931;43.498;-1.506;2023-03-14T05:48:48;14.80;92.20
34644;DHT22;26931;43.498;-1.506;2023-03-14T05:51:14;14.80;92.30
34644;DHT22;26931;43.498;-1.506;2023-03-14T05:53:40;14.80;92.40
34644;DHT22;26931;43.498;-1.506;2023-03-14T05:56:06;14.80;92.40
34644;DHT22;26931;43.498;-1.506;2023-03-14T05:58:32;14.80;92.60
34644;DHT22;26931;43.498;-1.506;2023-03-14T06:01:01;14.80;92.60
34644;DHT22;26931;43.498;-1.506;2023-03-14T06:03:26;14.80;92.70
34644;DHT22;26931;43.498;-1.506;2023-03-14T06:05:52;14.90;92.70
34644;DHT22;26931;43.498;-1.506;2023-03-14T06:08:18;15.00;92.80
34644;DHT22;26931;43.498;-1.506;2023-03-14T06:10:44;14.90;92.80
34644;DHT22;26931;43.498;-1.506;2023-03-14T06:13:10;14.80;92.70
34644;DHT22;26931;43.498;-1.506;2023-03-14T06:15:36;14.80;92.60
34644;DHT22;26931;43.498;-1.506;2023-03-14T06:18:02;14.80;92.60
34644;DHT22;26931;43.498;-1.506;2023-03-14T06:20:28;14.90;92.60
34644;DHT22;26931;43.498;-1.506;2023-03-14T06:22:53;15.00;92.50
34644;DHT22;26931;43.498;-1.506;2023-03-14T06:25:19;15.00;92.40
34644;DHT22;26931;43.498;-1.506;2023-03-14T06:27:45;14.90;92.30
34644;DHT22;26931;43.498;-1.506;2023-03-14T06:30:10;15.00;92.20
34644;DHT22;26931;43.498;-1.506;2023-03-14T06:32:36;14.90;92.20
34644;DHT22;26931;43.498;-1.506;2023-03-14T06:35:02;15.00;92.10
34644;DHT22;26931;43.498;-1.506;2023-03-14T06:37:28;15.30;92.20
34644;DHT22;26931;43.498;-1.506;2023-03-14T06:39:54;15.20;92.20
34644;DHT22;26931;43.498;-1.506;2023-03-14T06:42:20;15.10;92.10
34644;DHT22;26931;43.498;-1.506;2023-03-14T06:44:46;15.20;92.20
34644;DHT22;26931;43.498;-1.506;2023-03-14T06:47:12;15.20;92.20
34644;DHT22;26931;43.498;-1.506;2023-03-14T06:49:38;15.10;92.20
34644;DHT22;26931;43.498;-1.506;2023-03-14T06:52:03;15.10;92.20
34644;DHT22;26931;43.498;-1.506;2023-03-14T06:54:29;15.10;92.30
34644;DHT22;26931;43.498;-1.506;2023-03-14T06:56:55;15.10;92.30
34644;DHT22;26931;43.498;-1.506;2023-03-14T06:59:21;15.10;92.40
34644;DHT22;26931;43.498;-1.506;2023-03-14T07:01:47;15.10;92.40
34644;DHT22;26931;43.498;-1.506;2023-03-14T07:04:13;15.10;92.40
34644;DHT22;26931;43.498;-1.506;2023-03-14T07:06:39;15.00;92.30
34644;DHT22;26931;43.498;-1.506;2023-03-14T07:09:12;14.90;92.10
34644;DHT22;26931;43.498;-1.506;2023-03-14T07:11:38;14.80;92.20
34644;DHT22;26931;43.498;-1.506;2023-03-14T07:14:04;14.60;92.60
34644;DHT22;26931;43.498;-1.506;2023-03-14T07:16:30;14.60;92.90
34644;DHT22;26931;43.498;-1.506;2023-03-14T07:18:58;14.60;93.10
34644;DHT22;26931;43.498;-1.506;2023-03-14T07:21:24;14.40;93.30
34644;DHT22;26931;43.498;-1.506;2023-03-14T07:23:51;14.40;93.50
34644;DHT22;26931;43.498;-1.506;2023-03-14T07:26:16;14.40;93.70
34644;DHT22;26931;43.498;-1.506;2023-03-14T07:28:42;14.40;93.70
34644;DHT22;26931;43.498;-1.506;2023-03-14T07:31:08;14.40;93.70
34644;DHT22;26931;43.498;-1.506;2023-03-14T07:33:34;14.40;93.80
34644;DHT22;26931;43.498;-1.506;2023-03-14T07:36:00;14.40;93.80
34644;DHT22;26931;43.498;-1.506;2023-03-14T07:38:29;14.60;93.80
34644;DHT22;26931;43.498;-1.506;2023-03-14T07:40:59;14.70;93.80
34644;DHT22;26931;43.498;-1.506;2023-03-14T07:43:25;14.70;93.80
34644;DHT22;26931;43.498;-1.506;2023-03-14T07:45:51;14.80;93.90
34644;DHT22;26931;43.498;-1.506;2023-03-14T07:48:17;14.90;93.90
34644;DHT22;26931;43.498;-1.506;2023-03-14T07:50:43;14.80;93.80
34644;DHT22;26931;43.498;-1.506;2023-03-14T07:53:09;14.90;93.70
34644;DHT22;26931;43.498;-1.506;2023-03-14T07:55:35;15.00;93.50
34644;DHT22;26931;43.498;-1.506;2023-03-14T07:58:01;15.00;93.40
34644;DHT22;26931;43.498;-1.506;2023-03-14T08:00:27;15.30;93.40
34644;DHT22;26931;43.498;-1.506;2023-03-14T08:02:53;15.20;93.30
34644;DHT22;26931;43.498;-1.506;2023-03-14T08:05:18;15.10;93.20
34644;DHT22;26931;43.498;-1.506;2023-03-14T08:07:44;15.30;93.20
34644;DHT22;26931;43.498;-1.506;2023-03-14T08:10:10;15.20;93.00
34644;DHT22;26931;43.498;-1.506;2023-03-14T08:12:38;15.40;93.00
34644;DHT22;26931;43.498;-1.506;2023-03-14T08:15:06;15.40;92.90
34644;DHT22;26931;43.498;-1.506;2023-03-14T08:17:32;15.50;92.90
34644;DHT22;26931;43.498;-1.506;2023-03-14T08:19:58;15.50;92.80
34644;DHT22;26931;43.498;-1.506;2023-03-14T08:22:24;15.60;92.70
34644;DHT22;26931;43.498;-1.506;2023-03-14T08:24:49;15.50;92.60
34644;DHT22;26931;43.498;-1.506;2023-03-14T08:27:15;15.60;92.50
34644;DHT22;26931;43.498;-1.506;2023-03-14T08:29:40;15.60;92.40
34644;DHT22;26931;43.498;-1.506;2023-03-14T08:32:07;15.40;92.40
34644;DHT22;26931;43.498;-1.506;2023-03-14T08:34:33;15.30;92.60
34644;DHT22;26931;43.498;-1.506;2023-03-14T08:36:58;15.10;92.70
34644;DHT22;26931;43.498;-1.506;2023-03-14T08:39:24;15.00;92.60
34644;DHT22;26931;43.498;-1.506;2023-03-14T08:41:49;15.10;92.60
34644;DHT22;26931;43.498;-1.506;2023-03-14T08:44:15;15.20;92.50
34644;DHT22;26931;43.498;-1.506;2023-03-14T08:46:41;15.10;92.40
34644;DHT22;26931;43.498;-1.506;2023-03-14T08:49:06;15.20;92.40
34644;DHT22;26931;43.498;-1.506;2023-03-14T08:51:32;15.30;92.40
34644;DHT22;26931;43.498;-1.506;2023-03-14T08:53:58;15.30;92.50
34644;DHT22;26931;43.498;-1.506;2023-03-14T08:56:24;15.40;92.50
34644;DHT22;26931;43.498;-1.506;2023-03-14T08:58:50;15.40;92.50
34644;DHT22;26931;43.498;-1.506;2023-03-14T09:01:16;15.50;92.50
34644;DHT22;26931;43.498;-1.506;2023-03-14T09:03:42;15.50;92.50
34644;DHT22;26931;43.498;-1.506;2023-03-14T09:06:08;15.60;92.50
34644;DHT22;26931;43.498;-1.506;2023-03-14T09:08:35;15.60;92.50
34644;DHT22;26931;43.498;-1.506;2023-03-14T09:11:01;15.70;92.50
34644;DHT22;26931;43.498;-1.506;2023-03-14T09:13:27;15.70;92.50
34644;DHT22;26931;43.498;-1.506;2023-03-14T09:15:56;15.90;92.50
34644;DHT22;26931;43.498;-1.506;2023-03-14T09:18:22;16.00;92.40
34644;DHT22;26931;43.498;-1.506;2023-03-14T09:20:48;15.90;92.40
34644;DHT22;26931;43.498;-1.506;2023-03-14T09:23:14;15.90;92.40
34644;DHT22;26931;43.498;-1.506;2023-03-14T09:25:40;15.90;92.40
34644;DHT22;26931;43.498;-1.506;2023-03-14T09:28:06;16.00;92.30
34644;DHT22;26931;43.498;-1.506;2023-03-14T09:30:33;15.80;92.10
34644;DHT22;26931;43.498;-1.506;2023-03-14T09:32:59;15.80;91.70
34644;DHT22;26931;43.498;-1.506;2023-03-14T09:35:25;16.10;91.60
34644;DHT22;26931;43.498;-1.506;2023-03-14T09:37:51;16.00;91.30
34644;DHT22;26931;43.498;-1.506;2023-03-14T09:40:17;16.10;91.20
34644;DHT22;26931;43.498;-1.506;2023-03-14T09:42:43;16.30;91.20
34644;DHT22;26931;43.498;-1.506;2023-03-14T09:45:11;16.30;91.20
34644;DHT22;26931;43.498;-1.506;2023-03-14T09:47:37;16.40;91.20
34644;DHT22;26931;43.498;-1.506;2023-03-14T09:50:03;16.50;91.10
34644;DHT22;26931;43.498;-1.506;2023-03-14T09:52:32;16.60;91.00
34644;DHT22;26931;43.498;-1.506;2023-03-14T09:55:05;16.60;90.90
34644;DHT22;26931;43.498;-1.506;2023-03-14T09:57:32;16.70;90.90
34644;DHT22;26931;43.498;-1.506;2023-03-14T10:00:06;16.80;90.80
34644;DHT22;26931;43.498;-1.506;2023-03-14T10:02:40;16.80;90.80
34644;DHT22;26931;43.498;-1.506;2023-03-14T10:05:16;17.00;90.70
34644;DHT22;26931;43.498;-1.506;2023-03-14T10:07:43;17.00;90.60
34644;DHT22;26931;43.498;-1.506;2023-03-14T10:10:19;17.20;90.60
34644;DHT22;26931;43.498;-1.506;2023-03-14T10:12:46;17.10;90.60
34644;DHT22;26931;43.498;-1.506;2023-03-14T10:15:13;17.30;90.60
34644;DHT22;26931;43.498;-1.506;2023-03-14T10:17:44;17.00;90.20
34644;DHT22;26931;43.498;-1.506;2023-03-14T10:20:33;17.10;90.10
34644;DHT22;26931;43.498;-1.506;2023-03-14T10:22:59;17.00;90.00
34644;DHT22;26931;43.498;-1.506;2023-03-14T10:25:29;17.00;90.10
34644;DHT22;26931;43.498;-1.506;2023-03-14T10:27:56;16.70;90.20
34644;DHT22;26931;43.498;-1.506;2023-03-14T10:30:30;16.70;90.10
34644;DHT22;26931;43.498;-1.506;2023-03-14T10:32:59;16.40;90.10
34644;DHT22;26931;43.498;-1.506;2023-03-14T10:35:33;16.60;90.10
34644;DHT22;26931;43.498;-1.506;2023-03-14T10:38:00;16.60;90.00
34644;DHT22;26931;43.498;-1.506;2023-03-14T10:40:39;16.80;89.80
34644;DHT22;26931;43.498;-1.506;2023-03-14T10:43:06;16.50;89.40
34644;DHT22;26931;43.498;-1.506;2023-03-14T10:45:34;16.60;89.70
34644;DHT22;26931;43.498;-1.506;2023-03-14T10:48:18;16.60;89.80
34644;DHT22;26931;43.498;-1.506;2023-03-14T10:50:48;16.70;90.10
34644;DHT22;26931;43.498;-1.506;2023-03-14T10:53:16;16.80;90.20
34644;DHT22;26931;43.498;-1.506;2023-03-14T10:55:43;16.90;90.30
34644;DHT22;26931;43.498;-1.506;2023-03-14T10:58:20;16.90;90.20
34644;DHT22;26931;43.498;-1.506;2023-03-14T11:00:47;16.80;90.30
34644;DHT22;26931;43.498;-1.506;2023-03-14T11:03:15;16.70;90.40
34644;DHT22;26931;43.498;-1.506;2023-03-14T11:10:39;16.60;90.00
34644;DHT22;26931;43.498;-1.506;2023-03-14T11:21:01;16.80;90.10
34644;DHT22;26931;43.498;-1.506;2023-03-14T11:28:39;16.50;90.80
34644;DHT22;26931;43.498;-1.506;2023-03-14T11:31:27;16.50;91.00
34644;DHT22;26931;43.498;-1.506;2023-03-14T11:36:21;16.50;91.00
34644;DHT22;26931;43.498;-1.506;2023-03-14T11:41:18;16.50;91.10
34644;DHT22;26931;43.498;-1.506;2023-03-14T11:43:47;16.30;91.30
34644;DHT22;26931;43.498;-1.506;2023-03-14T11:51:11;15.80;92.10
34644;DHT22;26931;43.498;-1.506;2023-03-14T11:53:50;15.70;92.50
34644;DHT22;26931;43.498;-1.506;2023-03-14T11:56:25;15.60;92.80
34644;DHT22;26931;43.498;-1.506;2023-03-14T11:59:01;15.70;92.90
34644;DHT22;26931;43.498;-1.506;2023-03-14T12:01:31;15.60;92.90
34644;DHT22;26931;43.498;-1.506;2023-03-14T12:04:04;15.60;93.10
34644;DHT22;26931;43.498;-1.506;2023-03-14T12:06:44;15.60;93.20
34644;DHT22;26931;43.498;-1.506;2023-03-14T12:09:12;15.60;93.40
34644;DHT22;26931;43.498;-1.506;2023-03-14T12:11:40;15.80;93.20
34644;DHT22;26931;43.498;-1.506;2023-03-14T12:14:43;15.80;93.00
34644;DHT22;26931;43.498;-1.506;2023-03-14T12:17:05;15.80;93.00
34644;DHT22;26931;43.498;-1.506;2023-03-14T12:19:35;16.00;92.90
34644;DHT22;26931;43.498;-1.506;2023-03-14T12:22:06;16.10;92.70
34644;DHT22;26931;43.498;-1.506;2023-03-14T12:24:34;16.10;92.70
34644;DHT22;26931;43.498;-1.506;2023-03-14T12:27:02;16.00;92.80
34644;DHT22;26931;43.498;-1.506;2023-03-14T12:29:28;16.10;93.00
34644;DHT22;26931;43.498;-1.506;2023-03-14T12:34:28;16.10;93.20
34644;DHT22;26931;43.498;-1.506;2023-03-14T12:36:56;16.10;93.20
34644;DHT22;26931;43.498;-1.506;2023-03-14T12:39:43;16.30;93.00
34644;DHT22;26931;43.498;-1.506;2023-03-14T12:42:12;16.30;93.00
34644;DHT22;26931;43.498;-1.506;2023-03-14T12:44:45;16.40;92.90
34644;DHT22;26931;43.498;-1.506;2023-03-14T12:49:46;16.60;92.60
34644;DHT22;26931;43.498;-1.506;2023-03-14T12:52:13;16.80;92.40
34644;DHT22;26931;43.498;-1.506;2023-03-14T12:57:08;17.00;92.00
34644;DHT22;26931;43.498;-1.506;2023-03-14T12:59:36;17.10;91.90
34644;DHT22;26931;43.498;-1.506;2023-03-14T13:04:31;17.00;91.80
34644;DHT22;26931;43.498;-1.506;2023-03-14T13:06:58;17.00;91.90
34644;DHT22;26931;43.498;-1.506;2023-03-14T13:11:50;17.10;91.80
34644;DHT22;26931;43.498;-1.506;2023-03-14T13:14:16;17.10;91.60
34644;DHT22;26931;43.498;-1.506;2023-03-14T13:16:41;17.20;91.50
34644;DHT22;26931;43.498;-1.506;2023-03-14T13:19:13;17.20;91.40
34644;DHT22;26931;43.498;-1.506;2023-03-14T13:21:41;17.10;91.30
34644;DHT22;26931;43.498;-1.506;2023-03-14T13:24:18;17.10;91.30
34644;DHT22;26931;43.498;-1.506;2023-03-14T13:26:46;16.90;91.20
34644;DHT22;26931;43.498;-1.506;2023-03-14T13:29:25;16.90;91.20
34644;DHT22;26931;43.498;-1.506;2023-03-14T13:31:52;16.80;91.10
34644;DHT22;26931;43.498;-1.506;2023-03-14T13:34:19;16.90;91.10
34644;DHT22;26931;43.498;-1.506;2023-03-14T13:36:45;16.70;91.00
34644;DHT22;26931;43.498;-1.506;2023-03-14T13:39:13;16.80;91.10
34644;DHT22;26931;43.498;-1.506;2023-03-14T13:41:39;16.70;91.10
34644;DHT22;26931;43.498;-1.506;2023-03-14T13:44:06;16.60;91.00
34644;DHT22;26931;43.498;-1.506;2023-03-14T13:46:33;16.60;91.00
34644;DHT22;26931;43.498;-1.506;2023-03-14T13:49:06;16.60;91.10
34644;DHT22;26931;43.498;-1.506;2023-03-14T13:51:33;16.50;91.20
34644;DHT22;26931;43.498;-1.506;2023-03-14T13:53:59;16.50;91.50
34644;DHT22;26931;43.498;-1.506;2023-03-14T13:56:26;16.60;91.70
34644;DHT22;26931;43.498;-1.506;2023-03-14T13:58:52;16.60;91.90
34644;DHT22;26931;43.498;-1.506;2023-03-14T14:01:19;16.50;91.90
34644;DHT22;26931;43.498;-1.506;2023-03-14T14:03:47;16.50;91.80
34644;DHT22;26931;43.498;-1.506;2023-03-14T14:08:43;16.60;91.90
34644;DHT22;26931;43.498;-1.506;2023-03-14T14:11:09;16.70;91.90
34644;DHT22;26931;43.498;-1.506;2023-03-14T14:13:42;16.60;92.00
34644;DHT22;26931;43.498;-1.506;2023-03-14T14:16:07;16.40;92.10
34644;DHT22;26931;43.498;-1.506;2023-03-14T14:18:34;16.40;92.20
34644;DHT22;26931;43.498;-1.506;2023-03-14T14:21:00;16.20;92.40
34644;DHT22;26931;43.498;-1.506;2023-03-14T14:23:28;16.10;92.50
34644;DHT22;26931;43.498;-1.506;2023-03-14T14:25:55;16.10;92.70
34644;DHT22;26931;43.498;-1.506;2023-03-14T14:30:58;15.90;92.90
34644;DHT22;26931;43.498;-1.506;2023-03-14T14:33:24;15.90;93.00
34644;DHT22;26931;43.498;-1.506;2023-03-14T14:35:51;15.90;93.00
34644;DHT22;26931;43.498;-1.506;2023-03-14T14:38:17;15.90;92.90
34644;DHT22;26931;43.498;-1.506;2023-03-14T14:40:46;15.90;92.80
34644;DHT22;26931;43.498;-1.506;2023-03-14T14:43:15;15.90;92.80
34644;DHT22;26931;43.498;-1.506;2023-03-14T14:45:42;16.10;92.80
34644;DHT22;26931;43.498;-1.506;2023-03-14T14:48:09;15.90;92.70
34644;DHT22;26931;43.498;-1.506;2023-03-14T14:50:49;16.00;92.80
34644;DHT22;26931;43.498;-1.506;2023-03-14T14:53:24;16.00;92.80
34644;DHT22;26931;43.498;-1.506;2023-03-14T14:55:53;16.00;92.80
34644;DHT22;26931;43.498;-1.506;2023-03-14T15:00:58;16.00;92.80
34644;DHT22;26931;43.498;-1.506;2023-03-14T15:03:31;15.90;92.80
34644;DHT22;26931;43.498;-1.506;2023-03-14T15:05:57;16.00;92.80
34644;DHT22;26931;43.498;-1.506;2023-03-14T15:08:26;15.90;92.80
34644;DHT22;26931;43.498;-1.506;2023-03-14T15:10:53;15.90;92.80
34644;DHT22;26931;43.498;-1.506;2023-03-14T15:13:19;15.90;92.80
34644;DHT22;26931;43.498;-1.506;2023-03-14T15:15:45;15.90;92.80
34644;DHT22;26931;43.498;-1.506;2023-03-14T15:18:15;15.90;92.90
34644;DHT22;26931;43.498;-1.506;2023-03-14T15:20:41;15.90;92.90
34644;DHT22;26931;43.498;-1.506;2023-03-14T15:23:11;15.90;92.90
34644;DHT22;26931;43.498;-1.506;2023-03-14T15:25:37;15.90;93.00
34644;DHT22;26931;43.498;-1.506;2023-03-14T15:30:38;16.10;92.90
34644;DHT22;26931;43.498;-1.506;2023-03-14T15:33:04;15.90;92.70
34644;DHT22;26931;43.498;-1.506;2023-03-14T15:35:29;15.90;92.60
34644;DHT22;26931;43.498;-1.506;2023-03-14T15:37:55;16.00;92.50
34644;DHT22;26931;43.498;-1.506;2023-03-14T15:40:21;15.90;92.40
34644;DHT22;26931;43.498;-1.506;2023-03-14T15:42:49;15.90;92.40
34644;DHT22;26931;43.498;-1.506;2023-03-14T15:45:15;16.10;92.40
34644;DHT22;26931;43.498;-1.506;2023-03-14T15:47:41;16.00;92.70
34644;DHT22;26931;43.498;-1.506;2023-03-14T15:50:08;15.90;92.30
34644;DHT22;26931;43.498;-1.506;2023-03-14T15:52:35;15.90;92.30
34644;DHT22;26931;43.498;-1.506;2023-03-14T15:55:00;16.00;92.40
34644;DHT22;26931;43.498;-1.506;2023-03-14T15:57:26;15.90;92.40
34644;DHT22;26931;43.498;-1.506;2023-03-14T15:59:52;15.90;92.40
34644;DHT22;26931;43.498;-1.506;2023-03-14T16:02:18;15.90;92.50
34644;DHT22;26931;43.498;-1.506;2023-03-14T16:04:44;16.00;92.60
34644;DHT22;26931;43.498;-1.506;2023-03-14T16:07:10;15.90;92.60
34644;DHT22;26931;43.498;-1.506;2023-03-14T16:09:35;15.90;92.50
34644;DHT22;26931;43.498;-1.506;2023-03-14T16:12:01;15.90;92.40
34644;DHT22;26931;43.498;-1.506;2023-03-14T16:14:29;15.80;92.30